createdAt,value
2023-05-01T00:04:07.485Z,0.93
2023-05-01T00:09:12.550Z,0.83
2023-05-01T00:14:16.156Z,0.80
2023-05-01T00:19:19.691Z,1.00
2023-05-01T00:24:24.634Z,0.90
2023-05-01T00:29:28.181Z,1.13
2023-05-01T00:34:31.732Z,1.10
2023-05-01T00:39:36.921Z,1.00
2023-05-01T00:44:40.515Z,0.80
2023-05-01T00:49:45.853Z,1.10
2023-05-01T00:54:52.171Z,0.90
2023-05-01T00:59:56.010Z,0.90
2023-05-01T01:05:00.260Z,0.90
2023-05-01T01:10:18.167Z,0.90
2023-05-01T01:15:30.056Z,0.50
2023-05-01T01:20:41.000Z,0.73
2023-05-01T01:26:23.366Z,0.70
2023-05-01T01:31:39.340Z,0.73
2023-05-01T01:36:56.406Z,0.70
2023-05-01T01:42:01.313Z,0.70
2023-05-01T01:47:09.262Z,0.90
2023-05-01T01:52:16.313Z,0.60
2023-05-01T01:57:22.538Z,0.87
2023-05-01T02:02:28.263Z,0.70
2023-05-01T02:07:34.159Z,0.63
2023-05-01T02:12:38.450Z,0.80
2023-05-01T02:17:42.890Z,0.77
2023-05-01T02:22:48.984Z,0.40
2023-05-01T02:27:58.576Z,0.60
2023-05-01T02:33:02.286Z,0.53
2023-05-01T02:38:07.456Z,0.70
2023-05-01T02:43:13.728Z,0.40
2023-05-01T02:48:22.829Z,0.53
2023-05-01T02:53:27.778Z,0.60
2023-05-01T02:58:44.740Z,0.70
2023-05-01T03:03:48.818Z,0.80
2023-05-01T03:08:53.757Z,0.67
2023-05-01T03:13:57.424Z,0.80
2023-05-01T03:19:01.005Z,0.57
2023-05-01T03:24:06.222Z,0.77
2023-05-01T03:29:10.199Z,0.80
2023-05-01T03:34:13.849Z,0.77
2023-05-01T03:39:19.140Z,0.70
2023-05-01T03:44:51.618Z,0.60
2023-05-01T03:49:55.938Z,0.70
2023-05-01T03:55:01.458Z,0.70
2023-05-01T04:00:31.168Z,0.80
2023-05-01T04:05:35.057Z,0.60
2023-05-01T04:10:41.365Z,0.60
2023-05-01T04:15:46.921Z,0.70
2023-05-01T04:20:51.190Z,0.70
2023-05-01T04:25:57.247Z,0.63
2023-05-01T04:31:00.970Z,0.60
2023-05-01T04:36:04.849Z,0.50
2023-05-01T04:41:09.893Z,0.60
2023-05-01T04:46:14.300Z,0.60
2023-05-01T04:51:17.857Z,0.83
2023-05-01T04:56:22.935Z,0.57
2023-05-01T05:01:30.812Z,0.60
2023-05-01T05:06:35.039Z,0.70
2023-05-01T05:11:41.185Z,0.60
2023-05-01T05:16:48.849Z,0.40
2023-05-01T05:21:52.865Z,0.60
2023-05-01T05:26:57.987Z,0.70
2023-05-01T05:32:01.937Z,0.70
2023-05-01T05:37:05.716Z,0.60
2023-05-01T05:42:18.706Z,0.67
2023-05-01T05:47:22.748Z,0.67
2023-05-01T05:52:26.504Z,0.70
2023-05-01T05:57:31.678Z,0.50
2023-05-01T06:02:35.437Z,0.70
2023-05-01T06:07:39.793Z,0.50
2023-05-01T06:12:47.488Z,0.70
2023-05-01T06:17:58.584Z,0.80
2023-05-01T06:23:02.220Z,0.70
2023-05-01T06:28:17.577Z,0.80
2023-05-01T06:33:21.744Z,0.80
2023-05-01T06:38:36.541Z,0.70
2023-05-01T06:43:41.878Z,0.73
2023-05-01T06:48:45.982Z,0.60
2023-05-01T06:53:52.143Z,0.60
2023-05-01T06:58:57.023Z,0.70
2023-05-01T07:04:00.625Z,0.80
2023-05-01T07:09:04.299Z,0.90
2023-05-01T07:14:09.794Z,0.90
2023-05-01T07:19:13.743Z,0.80
2023-05-01T07:24:17.619Z,0.90
2023-05-01T07:29:22.501Z,1.17
2023-05-01T07:34:26.060Z,0.90
2023-05-01T07:39:29.895Z,0.80
2023-05-01T07:44:34.873Z,0.80
2023-05-01T07:49:39.320Z,1.10
2023-05-01T07:54:43.023Z,0.73
2023-05-01T07:59:48.017Z,1.00
2023-05-01T08:04:51.782Z,0.90
2023-05-01T08:09:57.795Z,0.93
2023-05-01T08:15:05.408Z,0.90
2023-05-01T08:20:10.217Z,0.80
2023-05-01T08:25:14.239Z,0.90
2023-05-01T08:30:19.628Z,1.00
2023-05-01T08:35:23.186Z,1.00
2023-05-01T08:40:27.903Z,1.00
2023-05-01T08:45:37.560Z,1.13
2023-05-01T08:50:42.049Z,1.00
2023-05-01T08:55:47.776Z,0.90
2023-05-01T09:00:56.501Z,1.07
2023-05-01T09:06:04.629Z,1.07
2023-05-01T09:11:08.344Z,1.20
2023-05-01T09:16:13.519Z,0.97
2023-05-01T09:21:17.412Z,1.00
2023-05-01T09:26:23.717Z,0.80
2023-05-01T09:31:30.095Z,0.80
2023-05-01T09:36:35.256Z,0.70
2023-05-01T09:41:52.380Z,1.17
2023-05-01T09:46:57.502Z,0.73
2023-05-01T09:52:12.457Z,0.80
2023-05-01T09:57:16.010Z,1.10
2023-05-01T10:02:30.839Z,1.40
2023-05-01T10:07:34.857Z,0.80
2023-05-01T10:12:38.481Z,1.10
2023-05-01T10:17:44.666Z,0.87
2023-05-01T10:22:48.924Z,0.60
2023-05-01T10:27:53.373Z,0.77
2023-05-01T10:33:00.107Z,0.60
2023-05-01T10:38:05.986Z,0.87
2023-05-01T10:43:17.041Z,0.67
2023-05-01T10:48:55.861Z,0.80
2023-05-01T10:54:25.656Z,0.90
2023-05-01T10:59:49.342Z,0.83
2023-05-01T11:04:56.146Z,0.83
2023-05-01T11:10:02.048Z,0.53
2023-05-01T11:15:08.263Z,0.70
2023-05-01T11:20:14.596Z,0.80
2023-05-01T11:25:20.955Z,1.00
2023-05-01T11:30:24.828Z,0.90
2023-05-01T11:35:29.911Z,0.83
2023-05-01T11:40:35.371Z,0.80
2023-05-01T11:45:39.067Z,0.80
2023-05-01T11:50:43.998Z,0.77
2023-05-01T11:55:49.305Z,0.50
2023-05-01T12:00:52.898Z,0.50
2023-05-01T12:05:57.794Z,0.50
2023-05-01T12:11:01.597Z,0.60
2023-05-01T12:16:06.085Z,0.50
2023-05-01T12:21:18.452Z,0.40
2023-05-01T12:26:23.826Z,0.40
2023-05-01T12:31:28.770Z,0.50
2023-05-01T12:36:35.630Z,0.30
2023-05-01T12:41:41.964Z,0.30
2023-05-01T12:46:47.433Z,0.30
2023-05-01T12:51:53.753Z,0.20
2023-05-01T12:57:07.816Z,0.30
2023-05-01T13:02:12.639Z,0.30
2023-05-01T13:07:19.601Z,0.30
2023-05-01T13:12:23.391Z,0.30
2023-05-01T13:17:28.732Z,0.33
2023-05-01T13:22:35.504Z,0.40
2023-05-01T13:27:39.033Z,0.40
2023-05-01T13:32:43.263Z,0.50
2023-05-01T13:37:48.254Z,0.50
2023-05-01T13:42:54.187Z,0.50
2023-05-01T13:47:57.908Z,0.40
2023-05-01T13:53:02.894Z,0.40
2023-05-01T13:58:07.467Z,0.50
2023-05-01T14:03:12.723Z,0.43
2023-05-01T14:08:21.659Z,0.60
2023-05-01T14:13:27.906Z,0.50
2023-05-01T14:18:31.481Z,0.60
2023-05-01T14:23:36.977Z,0.50
2023-05-01T14:28:43.612Z,0.40
2023-05-01T14:33:47.283Z,0.50
2023-05-01T14:38:53.131Z,0.70
2023-05-01T14:43:57.599Z,0.80
2023-05-01T14:49:02.355Z,0.60
2023-05-01T15:00:47.207Z,0.60
2023-05-01T15:05:50.919Z,0.50
2023-05-01T15:10:56.958Z,0.60
2023-05-01T15:16:00.558Z,0.60
2023-05-01T15:21:04.179Z,0.60
2023-05-01T15:26:09.096Z,0.60
2023-05-01T15:31:12.669Z,0.77
2023-05-01T15:36:16.663Z,0.50
2023-05-01T15:41:21.581Z,0.60
2023-05-01T15:46:27.066Z,0.60
2023-05-01T15:51:32.284Z,0.57
2023-05-01T15:56:38.188Z,0.70
2023-05-01T16:01:42.427Z,0.60
2023-05-01T16:06:46.125Z,0.50
2023-05-01T16:11:51.603Z,0.53
2023-05-01T16:16:55.138Z,0.43
2023-05-01T16:21:59.846Z,0.60
2023-05-01T16:27:04.879Z,0.60
2023-05-01T16:32:11.421Z,0.60
2023-05-01T16:37:16.211Z,0.60
2023-05-01T16:42:21.175Z,0.47
2023-05-01T16:47:24.743Z,0.50
2023-05-01T16:52:28.440Z,0.50
2023-05-01T16:57:33.707Z,0.60
2023-05-01T17:02:37.696Z,0.60
2023-05-01T17:07:41.338Z,0.57
2023-05-01T17:12:46.239Z,0.50
2023-05-01T17:17:49.869Z,0.70
2023-05-01T17:22:53.488Z,0.70
2023-05-01T17:27:59.191Z,0.60
2023-05-01T17:33:02.910Z,0.70
2023-05-01T17:38:06.668Z,0.67
2023-05-01T17:43:11.992Z,0.70
2023-05-01T17:48:15.797Z,0.53
2023-05-01T17:53:19.441Z,0.63
2023-05-01T17:58:24.408Z,0.60
2023-05-01T18:03:28.107Z,0.60
2023-05-01T18:08:31.863Z,0.70
2023-05-01T18:13:39.553Z,0.43
2023-05-01T18:18:43.231Z,0.80
2023-05-01T18:23:48.748Z,0.70
2023-05-01T18:28:53.937Z,0.47
2023-05-01T18:33:57.558Z,0.40
2023-05-01T18:39:01.921Z,0.50
2023-05-01T18:44:07.078Z,0.43
2023-05-01T18:49:10.964Z,0.53
2023-05-01T18:54:14.513Z,0.50
2023-05-01T18:59:19.469Z,0.50
2023-05-01T19:04:23.154Z,0.43
2023-05-01T19:09:26.722Z,0.40
2023-05-01T19:14:31.695Z,0.60
2023-05-01T19:19:35.232Z,0.60
2023-05-01T19:24:38.795Z,0.57
2023-05-01T19:29:43.656Z,0.83
2023-05-01T19:34:47.461Z,0.60
2023-05-01T19:39:51.141Z,0.57
2023-05-01T19:44:56.054Z,0.40
2023-05-01T19:49:59.906Z,0.50
2023-05-01T19:55:05.601Z,0.60
2023-05-01T20:00:12.855Z,0.50
2023-05-01T20:05:16.445Z,0.80
2023-05-01T20:10:20.109Z,0.53
2023-05-01T20:15:25.750Z,0.60
2023-05-01T20:20:30.507Z,0.53
2023-05-01T20:25:34.161Z,0.60
2023-05-01T20:30:40.362Z,0.63
2023-05-01T20:35:45.069Z,0.70
2023-05-01T20:40:48.652Z,0.53
2023-05-01T20:45:53.553Z,0.60
2023-05-01T20:50:57.157Z,0.60
2023-05-01T20:56:00.690Z,0.60
2023-05-01T21:01:06.600Z,0.60
2023-05-01T21:06:10.278Z,0.53
2023-05-01T21:11:13.839Z,0.63
2023-05-01T21:16:20.584Z,0.80
2023-05-01T21:21:24.904Z,0.80
2023-05-01T21:26:30.579Z,0.63
2023-05-01T21:31:36.666Z,0.53
2023-05-01T21:36:44.835Z,0.50
2023-05-01T21:41:49.321Z,0.50
2023-05-01T21:46:57.503Z,0.60
2023-05-01T21:52:01.383Z,0.70
2023-05-01T21:57:07.562Z,0.73
2023-05-01T22:02:13.706Z,0.83
2023-05-01T22:07:17.463Z,0.80
2023-05-01T22:12:21.056Z,0.70
2023-05-01T22:17:26.209Z,0.80
2023-05-01T22:22:29.732Z,1.00
2023-05-01T22:27:33.418Z,0.90
2023-05-01T22:32:38.509Z,0.93
2023-05-01T22:37:42.071Z,1.00
2023-05-01T22:42:45.821Z,0.90
2023-05-01T22:47:50.730Z,1.00
2023-05-01T22:52:54.267Z,0.90
2023-05-01T22:57:57.802Z,1.00
2023-05-01T23:03:02.710Z,1.10
2023-05-01T23:08:06.940Z,1.40
2023-05-01T23:13:18.711Z,1.67
2023-05-01T23:18:26.384Z,1.33
2023-05-01T23:23:31.421Z,1.70
2023-05-01T23:28:34.887Z,1.50
2023-05-01T23:33:40.224Z,1.50
2023-05-01T23:38:43.729Z,1.60
2023-05-01T23:43:48.140Z,1.80
2023-05-01T23:48:53.515Z,1.40
2023-05-01T23:53:57.001Z,1.50
2023-05-01T23:59:00.499Z,1.70
